Time;durP1;ratioP1;P1;durP2;ratioP2;P2;SDS_P1;SDS_P2;PMS_P1;PMS_P2;Temp;Humidity;BMP_temperature;BMP_pressure;BME280_temperature;BME280_humidity;BME280_pressure;Samples;Min_cycle;Max_cycle;Signal;HPM_P1;HPM_P2
2021/03/23 00:00:01;;;;;;;5.63;3.70;;;;;;;-0.32;79.41;99888.75;5028591;28;20218;-80
2021/03/23 00:02:46;;;;;;;6.83;3.57;;;;;;;-0.30;77.70;99899.97;5028393;28;20226;-80
2021/03/23 00:05:25;;;;;;;6.97;4.17;;;;;;;-0.34;76.60;99876.72;5011632;28;20258;-80
2021/03/23 00:08:06;;;;;;;6.77;3.70;;;;;;;-0.38;76.75;99870.06;5021463;28;20214;-82
2021/03/23 00:10:44;;;;;;;6.10;3.20;;;;;;;-0.21;74.56;99871.94;5034368;28;20289;-83
2021/03/23 00:13:28;;;;;;;6.90;3.37;;;;;;;-0.15;73.03;99871.38;5035014;28;20230;-81
2021/03/23 00:16:11;;;;;;;7.57;3.03;;;;;;;-0.14;72.80;99868.56;5034856;28;20221;-81
2021/03/23 00:18:50;;;;;;;4.23;2.90;;;;;;;0.16;71.25;99885.06;5004705;28;20231;-83
2021/03/23 00:21:33;;;;;;;5.33;3.27;;;;;;;0.23;71.08;99867.72;5016136;28;20237;-82
2021/03/23 00:24:20;;;;;;;7.10;2.77;;;;;;;0.24;70.15;99853.53;5016212;28;20230;-81
2021/03/23 00:26:56;;;;;;;5.83;3.20;;;;;;;0.38;69.79;99866.19;5017012;28;20229;-81
2021/03/23 00:29:37;;;;;;;7.57;3.30;;;;;;;0.56;69.40;99876.78;5034633;28;20222;-82
2021/03/23 00:32:20;;;;;;;5.10;2.97;;;;;;;0.62;70.07;99905.16;5048714;28;20245;-83
2021/03/23 00:35:01;;;;;;;5.33;3.10;;;;;;;0.55;70.26;99899.69;5016121;28;20286;-83
2021/03/23 00:37:42;;;;;;;6.10;2.93;;;;;;;0.58;69.72;99885.34;4998316;28;20223;-83
2021/03/23 00:40:26;;;;;;;8.10;3.40;;;;;;;0.51;70.48;99884.31;5014134;28;20230;-83
2021/03/23 00:43:16;;;;;;;10.10;3.20;;;;;;;0.70;70.35;99905.28;5000378;28;20227;-81
2021/03/23 00:46:11;;;;;;;4.90;3.00;;;;;;;0.78;70.17;99905.34;5017486;28;20233;-81
2021/03/23 00:48:56;;;;;;;7.23;3.13;;;;;;;0.66;69.99;99880.16;5001889;28;20241;-83
2021/03/23 00:51:40;;;;;;;5.10;3.27;;;;;;;0.85;70.27;99899.31;5030172;28;20239;-80
2021/03/23 00:54:38;;;;;;;5.63;3.00;;;;;;;0.75;70.01;99874.81;5046466;28;20687;-82
2021/03/23 00:57:34;;;;;;;7.40;3.20;;;;;;;0.78;69.65;99871.91;5036715;28;20249;-81
2021/03/23 01:00:29;;;;;;;6.73;3.23;;;;;;;0.87;69.25;99876.25;5049832;28;20250;-82
2021/03/23 01:03:10;;;;;;;8.27;3.97;;;;;;;0.96;69.15;99876.31;5033421;28;20236;-82
2021/03/23 01:05:51;;;;;;;7.73;4.00;;;;;;;1.04;68.96;99876.38;5016494;28;20233;-82
2021/03/23 01:08:32;;;;;;;7.17;3.70;;;;;;;1.02;68.53;99865.16;4999209;28;20227;-83
2021/03/23 01:11:12;;;;;;;6.33;3.30;;;;;;;1.11;68.67;99874.81;5030196;28;20246;-82
2021/03/23 01:14:07;;;;;;;8.90;3.60;;;;;;;1.28;68.14;99903.78;5012052;28;20215;-80
2021/03/23 01:16:58;;;;;;;7.27;3.73;;;;;;;1.21;68.65;99894.03;5016192;28;20220;-83
2021/03/23 01:19:45;;;;;;;7.50;3.20;;;;;;;1.20;68.45;99909.03;5031860;28;20234;-81
2021/03/23 01:22:37;;;;;;;5.83;3.80;;;;;;;1.32;68.60;99901.66;5023246;28;20223;-82
2021/03/23 01:25:27;;;;;;;6.90;3.70;;;;;;;1.14;68.69;99875.31;5013769;28;20642;-82
2021/03/23 01:28:12;;;;;;;7.93;4.13;;;;;;;1.41;68.09;99903.38;5014193;28;20230;-81
2021/03/23 01:30:56;;;;;;;7.07;4.10;;;;;;;1.27;68.10;99872.25;5016225;28;20214;-83
2021/03/23 01:33:45;;;;;;;6.53;4.10;;;;;;;1.26;68.19;99882.00;5028417;28;20233;-83
2021/03/23 01:36:23;;;;;;;7.43;3.93;;;;;;;1.25;67.86;99868.97;5027787;28;20230;-82
2021/03/23 01:39:08;;;;;;;7.40;4.07;;;;;;;1.45;68.41;99906.53;5028940;28;20226;-84
2021/03/23 01:41:54;;;;;;;7.23;4.13;;;;;;;1.21;68.34;99868.44;5012191;28;20313;-83
2021/03/23 01:44:30;;;;;;;7.13;4.13;;;;;;;1.44;68.88;99896.97;5019513;28;20231;-81
2021/03/23 01:47:15;;;;;;;7.00;3.70;;;;;;;1.53;68.21;99906.63;4994598;28;20253;-81
2021/03/23 01:49:53;;;;;;;8.37;4.43;;;;;;;1.37;68.41;99883.56;4995752;28;20301;-82
2021/03/23 01:52:39;;;;;;;7.77;4.10;;;;;;;1.56;68.03;99906.28;5009783;28;20227;-82
2021/03/23 01:55:24;;;;;;;8.03;4.50;;;;;;;1.50;68.52;99901.63;4993833;28;20294;-83
2021/03/23 01:58:17;;;;;;;8.80;4.23;;;;;;;1.32;69.37;99880.56;5013929;28;20227;-80
2021/03/23 02:01:12;;;;;;;9.90;4.23;;;;;;;1.43;68.77;99897.97;5015106;28;20228;-83
2021/03/23 02:03:57;;;;;;;8.50;4.13;;;;;;;1.30;69.94;99887.81;5015748;28;20234;-82
2021/03/23 02:06:48;;;;;;;8.77;4.60;;;;;;;1.36;69.92;99894.25;5020441;28;20283;-83
2021/03/23 02:09:38;;;;;;;9.10;4.70;;;;;;;1.23;70.24;99878.84;5035540;28;20234;-81
2021/03/23 02:12:33;;;;;;;8.40;4.70;;;;;;;1.35;70.62;99903.19;5043751;28;20232;-83
2021/03/23 02:15:25;;;;;;;9.30;4.70;;;;;;;1.31;71.18;99900.00;5027051;28;20236;-82
2021/03/23 02:18:22;;;;;;;8.83;4.90;;;;;;;1.26;70.56;99892.56;5036889;28;20241;-83
2021/03/23 02:21:15;;;;;;;8.03;4.90;;;;;;;1.08;71.47;99877.72;5035100;28;20226;-82
2021/03/23 02:24:10;;;;;;;9.57;4.83;;;;;;;0.96;71.30;99860.50;5037774;28;20258;-81
2021/03/23 02:26:53;;;;;;;9.27;4.57;;;;;;;0.96;72.09;99877.16;5021166;28;20228;-81
2021/03/23 02:29:50;;;;;;;10.10;5.10;;;;;;;1.12;72.28;99900.22;5053717;28;20233;-81
2021/03/23 02:32:37;;;;;;;9.83;5.30;;;;;;;0.98;72.09;99874.38;5023031;28;20229;-80
2021/03/23 02:35:38;;;;;;;9.83;4.67;;;;;;;0.96;73.04;99884.22;5041028;28;20232;-83
2021/03/23 02:38:25;;;;;;;8.83;5.37;;;;;;;0.96;73.37;99890.34;5038134;28;20225;-82
2021/03/23 02:41:17;;;;;;;10.03;4.90;;;;;;;0.94;73.52;99902.00;5054356;28;20285;-81
2021/03/23 02:44:12;;;;;;;10.57;4.97;;;;;;;0.94;72.68;99899.38;5041566;28;20257;-83
2021/03/23 02:47:00;;;;;;;11.97;5.33;;;;;;;0.93;73.28;99908.28;5054381;28;20233;-82
2021/03/23 02:49:50;;;;;;;10.50;5.07;;;;;;;0.89;73.18;99891.91;5054891;28;20257;-82
2021/03/23 02:52:50;;;;;;;9.57;5.40;;;;;;;0.96;73.91;99898.25;5053589;28;20286;-82
2021/03/23 02:55:51;;;;;;;9.50;5.77;;;;;;;0.94;74.04;99918.66;5051717;28;20312;-82
2021/03/23 02:58:35;;;;;;;12.07;5.67;;;;;;;0.92;74.23;99904.00;5038675;28;20222;-81
2021/03/23 03:01:23;;;;;;;12.60;6.00;;;;;;;0.89;74.56;99911.22;5014545;28;20234;-82
2021/03/23 03:04:16;;;;;;;9.93;5.73;;;;;;;0.77;73.94;99896.59;5038510;28;20226;-81
2021/03/23 03:07:04;;;;;;;12.30;6.17;;;;;;;0.74;74.10;99886.38;5035166;28;20219;-82
2021/03/23 03:09:47;;;;;;;9.90;6.00;;;;;;;0.80;74.79;99900.72;5001888;28;20310;-81
2021/03/23 03:12:36;;;;;;;11.00;6.53;;;;;;;0.77;74.25;99882.59;5032752;28;20227;-81
2021/03/23 03:15:30;;;;;;;12.27;6.30;;;;;;;0.93;74.83;99914.41;5009966;28;20229;-83
2021/03/23 03:18:14;;;;;;;9.77;6.17;;;;;;;0.82;74.70;99899.63;5022009;28;20234;-81
2021/03/23 03:21:02;;;;;;;10.37;6.10;;;;;;;0.92;75.13;99912.75;5028875;28;20233;-81
2021/03/23 03:23:55;;;;;;;14.50;6.37;;;;;;;0.74;74.90;99888.16;5001300;28;20234;-82
2021/03/23 03:26:52;;;;;;;11.60;6.47;;;;;;;0.82;75.92;99889.06;5033520;28;20231;-81
2021/03/23 03:29:58;;;;;;;13.20;6.17;;;;;;;0.72;75.17;99882.19;5020535;28;20233;-83
2021/03/23 03:32:52;;;;;;;13.00;7.30;;;;;;;0.90;75.79;99906.75;5034210;28;20230;-83
2021/03/23 03:35:45;;;;;;;12.90;7.93;;;;;;;0.79;75.71;99888.53;5035121;28;20234;-83
2021/03/23 03:38:41;;;;;;;16.67;7.63;;;;;;;0.95;75.75;99912.41;5003377;28;20237;-83
2021/03/23 03:41:31;;;;;;;12.80;7.80;;;;;;;0.92;75.96;99910.09;5030874;28;20295;-80
2021/03/23 03:44:20;;;;;;;12.07;7.37;;;;;;;0.87;76.05;99896.53;5015480;28;20235;-83
2021/03/23 03:47:13;;;;;;;12.40;7.13;;;;;;;1.02;75.76;99897.66;5016834;28;20230;-82
2021/03/23 03:50:00;;;;;;;12.00;7.23;;;;;;;1.05;75.35;99894.69;5016558;28;20223;-80
2021/03/23 03:52:46;;;;;;;14.70;7.63;;;;;;;0.99;75.66;99887.38;5029829;28;20317;-81
2021/03/23 03:55:28;;;;;;;12.70;7.83;;;;;;;1.14;75.42;99903.50;5013812;28;20245;-81
2021/03/23 03:58:06;;;;;;;12.57;8.00;;;;;;;1.07;75.99;99886.66;4998484;28;20234;-80
2021/03/23 04:00:55;;;;;;;15.30;8.60;;;;;;;1.17;75.86;99897.91;5001484;28;20230;-81
2021/03/23 04:03:42;;;;;;;14.97;8.83;;;;;;;1.19;75.02;99888.06;5031009;28;20222;-81
2021/03/23 04:06:54;;;;;;;17.93;8.83;;;;;;;1.35;75.44;99904.03;4998430;28;20234;-81
2021/03/23 04:10:00;;;;;;;15.30;8.40;;;;;;;1.28;75.14;99887.97;5033598;28;20235;-83
2021/03/23 04:12:55;;;;;;;16.17;8.87;;;;;;;1.32;75.13;99899.03;5005662;28;20233;-83
2021/03/23 04:15:44;;;;;;;18.43;9.37;;;;;;;1.51;74.74;99912.03;5033122;28;20229;-81
2021/03/23 04:18:29;;;;;;;17.37;8.77;;;;;;;1.53;74.70;99918.00;5016873;28;20234;-83
2021/03/23 04:21:18;;;;;;;14.47;8.43;;;;;;;1.54;73.98;99903.78;5016582;28;20221;-82
2021/03/23 04:24:20;;;;;;;15.10;8.80;;;;;;;1.72;73.80;99915.16;5020748;28;20249;-81
2021/03/23 04:27:18;;;;;;;16.47;9.33;;;;;;;1.78;73.85;99933.00;5053243;28;20232;-83
2021/03/23 04:30:08;;;;;;;15.70;7.63;;;;;;;1.91;72.95;99923.84;5052018;28;20233;-81
2021/03/23 04:32:55;;;;;;;14.43;8.30;;;;;;;1.89;73.29;99926.63;5024041;28;20249;-82
2021/03/23 04:36:00;;;;;;;14.63;8.80;;;;;;;1.91;73.85;99932.63;5039038;28;20222;-82
2021/03/23 04:39:00;;;;;;;16.37;8.70;;;;;;;1.77;73.99;99912.84;5033323;28;20241;-83
2021/03/23 04:41:49;;;;;;;14.67;8.03;;;;;;;1.81;73.19;99912.56;5036468;28;20287;-80
2021/03/23 04:44:38;;;;;;;16.03;8.27;;;;;;;1.64;73.44;99895.78;5050792;28;20229;-81
2021/03/23 04:47:47;;;;;;;16.93;8.87;;;;;;;1.79;73.93;99912.72;5039232;28;20218;-83
2021/03/23 04:50:42;;;;;;;14.17;7.90;;;;;;;1.85;73.63;99927.94;5051659;28;20230;-80
2021/03/23 04:53:36;;;;;;;13.73;8.10;;;;;;;1.82;73.16;99914.22;5050911;28;20230;-80
2021/03/23 04:56:35;;;;;;;14.97;8.13;;;;;;;1.84;73.69;99914.88;5042652;28;20562;-81
2021/03/23 04:59:45;;;;;;;16.97;8.30;;;;;;;1.92;73.82;99930.78;5042900;23;20236;-81
2021/03/23 05:02:51;;;;;;;16.87;8.77;;;;;;;2.01;72.78;99925.38;5058338;23;20254;-80
2021/03/23 05:06:41;;;;;;;17.03;8.73;;;;;;;2.19;72.92;99939.34;5043442;28;20214;-80
2021/03/23 05:09:38;;;;;;;16.63;8.57;;;;;;;2.24;73.12;99943.34;5054804;28;20217;-80
2021/03/23 05:13:15;;;;;;;14.37;8.10;;;;;;;2.26;72.45;99930.78;5059579;23;20232;-80
2021/03/23 05:16:34;;;;;;;17.67;8.60;;;;;;;2.26;73.05;99928.13;4996349;28;20220;-80
2021/03/23 05:19:37;;;;;;;16.03;8.53;;;;;;;2.44;72.05;99942.91;5045274;23;20253;-80
2021/03/23 05:22:34;;;;;;;15.43;8.83;;;;;;;2.50;72.18;99946.75;5013598;28;20216;-81
2021/03/23 05:25:31;;;;;;;20.37;9.60;;;;;;;2.54;72.70;99948.06;5033443;28;20245;-80
2021/03/23 05:28:37;;;;;;;16.00;8.57;;;;;;;2.56;71.29;99935.53;5002648;28;20642;-81
2021/03/23 05:31:37;;;;;;;21.63;9.47;;;;;;;2.61;71.61;99941.97;5038030;23;20234;-81
2021/03/23 05:34:31;;;;;;;14.20;8.63;;;;;;;2.74;71.31;99953.94;5038822;28;20230;-80
2021/03/23 05:37:14;;;;;;;15.57;8.03;;;;;;;2.83;70.93;99971.47;5075934;23;20238;-81
2021/03/23 05:40:45;;;;;;;17.43;9.57;;;;;;;2.89;70.44;99957.59;5057663;23;20237;-80
2021/03/23 05:44:09;;;;;;;15.27;8.67;;;;;;;3.03;70.02;99965.72;5042528;23;20230;-80
2021/03/23 05:47:00;;;;;;;18.60;9.13;;;;;;;2.92;69.36;99929.00;5050108;28;20206;-81
2021/03/23 05:50:19;;;;;;;16.40;8.87;;;;;;;3.29;69.55;99968.25;5042753;28;20222;-80
2021/03/23 05:54:08;;;;;;;16.93;9.40;;;;;;;3.39;68.93;99968.09;4974332;28;20247;-80
2021/03/23 05:57:24;;;;;;;14.37;8.33;;;;;;;3.57;68.42;99984.63;5027353;23;20459;-79
2021/03/23 06:01:10;;;;;;;18.20;8.93;;;;;;;3.55;67.50;99976.00;5049968;23;20229;-80
2021/03/23 06:05:01;;;;;;;13.77;9.30;;;;;;;3.74;67.21;99970.38;5070549;28;20225;-80
2021/03/23 06:08:11;;;;;;;13.07;8.37;;;;;;;3.97;66.76;99978.44;5038541;28;20190;-80
2021/03/23 06:11:49;;;;;;;13.93;8.67;;;;;;;4.20;66.87;99989.19;5045084;28;20220;-80
2021/03/23 06:15:25;;;;;;;16.83;8.93;;;;;;;4.38;65.70;99992.44;5048670;23;20234;-79
2021/03/23 06:19:33;;;;;;;17.53;8.93;;;;;;;4.61;65.07;99984.56;4969694;29;20220;-80
2021/03/23 06:23:00;;;;;;;16.17;8.37;;;;;;;4.78;64.31;99986.13;4970496;29;20224;-79
2021/03/23 06:26:42;;;;;;;19.33;8.53;;;;;;;4.97;63.86;99995.50;4975597;28;20185;-80
2021/03/23 06:30:44;;;;;;;14.57;8.67;;;;;;;4.94;63.29;99998.50;5018731;23;20218;-80
2021/03/23 06:34:37;;;;;;;18.70;8.80;;;;;;;5.13;62.41;99982.94;5030832;28;20226;-79
2021/03/23 06:40:57;;;;;;;16.20;8.60;;;;;;;5.34;61.76;99998.25;4967124;23;20261;-80
2021/03/23 06:44:37;;;;;;;14.80;8.33;;;;;;;5.60;60.90;100003.22;5062752;23;20281;-79
2021/03/23 06:47:53;;;;;;;13.40;7.77;;;;;;;5.68;60.56;100003.97;5128834;23;20207;-81
2021/03/23 06:51:13;;;;;;;16.77;7.80;;;;;;;5.85;60.46;100007.31;5067592;23;20213;-80
2021/03/23 06:55:10;;;;;;;12.80;7.80;;;;;;;5.97;60.37;100000.56;5073554;28;20213;-79
2021/03/23 06:58:41;;;;;;;15.43;8.13;;;;;;;5.93;60.07;99998.44;5072011;28;20212;-80
2021/03/23 07:02:09;;;;;;;11.33;7.67;;;;;;;6.18;58.56;100008.69;5051841;28;20206;-80
2021/03/23 07:05:43;;;;;;;13.47;7.97;;;;;;;6.35;58.27;99995.19;5061236;23;20241;-81
2021/03/23 07:09:26;;;;;;;11.87;7.37;;;;;;;6.53;57.85;99996.47;5060212;23;20229;31
2021/03/23 07:12:44;;;;;;;13.23;8.10;;;;;;;6.49;57.49;99965.06;4960459;23;20247;-80
2021/03/23 07:16:18;;;;;;;13.93;7.83;;;;;;;6.94;57.14;100006.63;5072847;28;20267;-82
2021/03/23 07:23:06;;;;;;;13.37;7.47;;;;;;;7.68;54.45;99999.19;4988950;23;20691;-80
2021/03/23 07:26:00;;;;;;;12.40;7.80;;;;;;;7.83;53.47;100013.28;5068421;23;20208;-82
2021/03/23 07:29:21;;;;;;;16.90;7.93;;;;;;;7.93;52.81;100003.91;5041807;28;20222;-78
2021/03/23 07:32:52;;;;;;;13.30;7.60;;;;;;;7.53;53.75;100013.41;5045970;28;20230;-79
2021/03/23 07:35:59;;;;;;;14.07;7.70;;;;;;;7.05;53.88;99972.31;4976681;28;20301;-79
2021/03/23 07:39:25;;;;;;;13.73;7.77;;;;;;;7.17;54.22;100014.47;5048741;28;20213;-81
2021/03/23 07:43:14;;;;;;;14.30;8.07;;;;;;;7.03;55.25;100019.66;5119462;23;20227;-82
2021/03/23 07:46:29;;;;;;;14.87;7.40;;;;;;;7.12;54.19;100019.53;5096766;23;20222;-81
2021/03/23 07:50:14;;;;;;;15.07;8.27;;;;;;;7.33;54.52;100020.38;5126309;23;20229;-78
2021/03/23 07:53:53;;;;;;;12.60;7.60;;;;;;;7.37;53.72;100004.84;5045135;23;20229;-79
2021/03/23 07:57:31;;;;;;;12.87;7.37;;;;;;;7.59;53.19;100019.00;5071497;23;20265;-79
2021/03/23 08:01:25;;;;;;;12.37;7.73;;;;;;;7.75;53.01;100024.06;5046018;23;20233;-78
2021/03/23 08:04:40;;;;;;;13.80;7.50;;;;;;;7.91;52.77;100013.94;5067863;23;20237;-78
2021/03/23 08:07:29;;;;;;;11.90;7.63;;;;;;;8.28;51.73;100023.47;5073735;28;20237;-78
2021/03/23 08:10:21;;;;;;;13.70;7.10;;;;;;;8.55;50.23;100020.97;5054083;23;20235;-78
2021/03/23 08:13:56;;;;;;;13.53;7.27;;;;;;;8.32;50.47;100018.59;5049600;23;20222;-78
2021/03/23 08:17:12;;;;;;;15.23;7.93;;;;;;;8.38;49.73;100010.63;5039912;23;20231;-79
2021/03/23 08:20:48;;;;;;;12.97;7.40;;;;;;;8.38;50.13;100015.97;5007752;23;20409;-78
2021/03/23 08:24:06;;;;;;;15.63;7.53;;;;;;;8.58;49.68;100013.41;5051282;28;20207;-78
2021/03/23 08:27:32;;;;;;;16.50;8.03;;;;;;;8.44;49.99;100011.69;5049132;23;20227;-80
2021/03/23 08:31:25;;;;;;;19.13;8.07;;;;;;;8.84;49.44;100007.38;4974597;28;20224;-78
2021/03/23 08:34:42;;;;;;;13.60;8.03;;;;;;;9.24;47.88;100002.97;4973758;28;20259;-78
2021/03/23 08:38:33;;;;;;;12.37;7.60;;;;;;;8.89;48.42;99996.91;4983060;28;20230;-78
2021/03/23 08:46:31;;;;;;;10.50;7.17;;;;;;;9.08;46.92;99949.88;4962394;23;20202;-78
2021/03/23 08:50:04;;;;;;;12.57;7.73;;;;;;;9.18;48.00;100009.13;5077842;23;20233;-78
2021/03/23 08:53:49;;;;;;;13.90;7.90;;;;;;;8.99;47.72;99969.81;5086053;23;20285;-78
2021/03/23 08:56:56;;;;;;;12.67;7.57;;;;;;;9.16;47.68;100020.03;5054555;28;20230;-78
2021/03/23 09:00:40;;;;;;;14.77;7.00;;;;;;;8.67;48.01;99990.03;5055353;28;20212;-77
2021/03/23 09:04:19;;;;;;;12.23;7.03;;;;;;;8.31;48.10;99979.56;5018170;28;20238;-78
2021/03/23 09:07:32;;;;;;;10.23;7.17;;;;;;;8.54;48.51;100014.81;5062716;23;20220;-78
2021/03/23 09:11:00;;;;;;;12.40;7.00;;;;;;;9.04;47.11;100008.28;4973527;28;20231;-78
2021/03/23 09:14:27;;;;;;;13.80;7.10;;;;;;;8.92;46.53;99972.44;5014927;23;20216;-78
2021/03/23 09:18:20;;;;;;;16.30;6.97;;;;;;;9.29;46.51;100006.69;5031491;28;20243;-78
2021/03/23 09:21:51;;;;;;;13.50;7.40;;;;;;;9.37;45.93;100004.88;5049504;23;20298;-78
2021/03/23 09:26:01;;;;;;;13.77;7.27;;;;;;;9.62;45.43;100000.56;5073614;28;20229;-78
2021/03/23 09:29:48;;;;;;;12.70;7.37;;;;;;;9.81;45.73;100007.78;5144926;23;20349;-78
2021/03/23 09:34:08;;;;;;;10.83;6.63;;;;;;;9.15;46.30;99991.63;4992526;23;20289;-78
2021/03/23 09:37:37;;;;;;;10.13;6.03;;;;;;;8.77;47.56;99987.81;5066806;23;20272;-77
2021/03/23 09:41:09;;;;;;;14.97;7.40;;;;;;;8.62;48.39;100004.00;5039104;23;20195;31
2021/03/23 09:48:52;;;;;;;15.50;7.60;;;;;;;8.12;50.09;99993.59;5057783;23;20226;-78
2021/03/23 09:52:27;;;;;;;11.17;7.53;;;;;;;8.07;49.31;99988.00;4982568;23;20209;31
2021/03/23 09:55:39;;;;;;;13.70;7.70;;;;;;;8.05;49.83;99988.19;5004979;23;20235;-78
2021/03/23 09:59:32;;;;;;;13.50;8.20;;;;;;;8.16;49.21;99985.00;5046435;23;20256;-78
2021/03/23 10:02:56;;;;;;;13.97;7.70;;;;;;;8.57;48.85;99969.03;5218149;23;20226;-78
2021/03/23 10:06:25;;;;;;;13.10;7.27;;;;;;;9.24;46.89;99963.69;5019060;28;20212;-77
2021/03/23 10:09:49;;;;;;;12.70;7.60;;;;;;;9.26;47.67;99967.00;5023150;28;20186;-78
2021/03/23 10:13:39;;;;;;;12.23;7.00;;;;;;;9.40;45.23;99975.88;5016407;23;20219;-78
2021/03/23 10:17:33;;;;;;;11.67;7.40;;;;;;;9.62;44.80;99966.63;5129752;23;20237;31
2021/03/23 10:20:35;;;;;;;12.60;7.30;;;;;;;10.08;44.68;99955.06;4985358;28;20304;-78
2021/03/23 10:23:35;;;;;;;10.77;7.00;;;;;;;10.17;43.95;99956.53;4994790;28;20235;-78
2021/03/23 10:27:09;;;;;;;12.80;7.30;;;;;;;10.17;44.06;99945.00;4993691;28;20172;-78
2021/03/23 10:30:29;;;;;;;10.93;7.23;;;;;;;10.92;43.27;99933.56;5045975;23;20256;-77
2021/03/23 10:37:39;;;;;;;12.63;7.17;;;;;;;11.98;39.28;99944.41;4909763;29;20230;-78
2021/03/23 10:41:43;;;;;;;11.67;6.70;;;;;;;11.39;40.11;99927.72;4943668;23;20612;-78
2021/03/23 10:45:00;;;;;;;13.43;7.27;;;;;;;10.62;42.38;99929.81;5089026;23;20220;-78
2021/03/23 10:48:48;;;;;;;10.80;6.60;;;;;;;9.79;43.17;99926.91;5016165;28;20219;-78
2021/03/23 10:52:41;;;;;;;9.10;5.67;;;;;;;8.88;43.39;99920.44;5218462;23;20245;-78
2021/03/23 10:57:02;;;;;;;10.67;6.83;;;;;;;8.34;45.72;99881.22;5025379;23;20234;-78
2021/03/23 11:00:34;;;;;;;10.90;6.80;;;;;;;8.57;46.90;99926.31;4995143;28;20690;-78
2021/03/23 11:04:05;;;;;;;11.63;6.73;;;;;;;8.28;47.93;99932.69;4982459;28;20208;-78
2021/03/23 11:06:56;;;;;;;9.73;6.60;;;;;;;8.72;47.82;99937.66;5021731;23;20257;-78
2021/03/23 11:09:35;;;;;;;12.60;7.73;;;;;;;8.88;47.69;99938.31;5044436;23;20229;-78
2021/03/23 11:12:10;;;;;;;11.50;7.20;;;;;;;9.36;46.31;99933.69;5048756;28;20234;-78
2021/03/23 11:15:05;;;;;;;15.40;8.47;;;;;;;9.39;46.68;99942.13;5052762;28;20214;-78
2021/03/23 11:17:57;;;;;;;13.93;8.47;;;;;;;9.62;45.76;99933.69;5039490;28;20217;-78
2021/03/23 11:20:52;;;;;;;11.30;8.23;;;;;;;9.50;46.11;99921.97;5059219;23;20252;-78
2021/03/23 11:24:46;;;;;;;15.47;6.90;;;;;;;9.60;46.15;99943.78;5056248;23;20229;-78
2021/03/23 11:27:38;;;;;;;8.13;6.20;;;;;;;9.42;45.79;99925.69;5052166;28;20238;-78
2021/03/23 11:30:39;;;;;;;10.00;6.40;;;;;;;9.17;46.26;99938.81;5051087;23;20221;-78
2021/03/23 11:33:37;;;;;;;12.90;7.17;;;;;;;8.95;46.71;99923.13;5038987;28;20226;-78
2021/03/23 11:36:37;;;;;;;10.37;6.70;;;;;;;9.13;47.43;99916.19;5052399;28;20234;-78
2021/03/23 11:39:52;;;;;;;13.57;7.33;;;;;;;9.36;46.73;99939.03;5056844;23;20223;-78
2021/03/23 11:43:30;;;;;;;9.27;6.97;;;;;;;9.60;46.36;99949.13;5060408;23;20290;31
2021/03/23 11:46:34;;;;;;;12.30;6.83;;;;;;;10.33;45.57;99949.91;5002829;23;20238;-78
2021/03/23 11:50:00;;;;;;;13.17;7.70;;;;;;;10.40;45.00;99945.38;5035009;28;20230;-78
2021/03/23 11:53:13;;;;;;;12.77;7.00;;;;;;;10.73;45.04;99951.41;5069630;23;20236;-77
2021/03/23 11:56:17;;;;;;;12.23;7.20;;;;;;;10.54;45.63;99945.09;5122937;23;20258;-78
2021/03/23 11:59:22;;;;;;;13.63;7.40;;;;;;;10.22;45.59;99955.91;5040816;23;20227;-77
2021/03/23 12:02:38;;;;;;;12.83;7.63;;;;;;;10.07;46.31;99951.59;4983762;23;20235;-78
2021/03/23 12:05:48;;;;;;;17.10;7.47;;;;;;;9.92;46.67;99926.91;5029675;23;20231;-78
2021/03/23 12:09:18;;;;;;;10.60;7.43;;;;;;;10.25;47.08;99947.47;5039624;23;20222;-78
2021/03/23 12:13:46;;;;;;;13.33;7.70;;;;;;;10.18;47.14;99955.50;5052588;28;20228;-77
2021/03/23 12:17:40;;;;;;;13.87;7.63;;;;;;;10.00;47.65;99941.91;5042390;23;20309;-78
2021/03/23 12:20:43;;;;;;;10.37;7.77;;;;;;;9.39;49.00;99941.28;5112012;23;20214;-78
2021/03/23 12:24:17;;;;;;;12.27;7.53;;;;;;;9.38;49.76;99937.78;5140843;23;20226;-78
2021/03/23 12:27:38;;;;;;;10.60;7.27;;;;;;;9.38;49.38;99959.19;5054416;28;20214;-78
2021/03/23 12:31:03;;;;;;;11.20;7.87;;;;;;;9.03;50.17;99907.72;5058216;23;20282;-78
2021/03/23 12:34:05;;;;;;;12.07;7.50;;;;;;;9.20;50.11;99914.31;5097259;23;20235;-78
2021/03/23 12:37:23;;;;;;;12.43;7.07;;;;;;;9.33;50.06;99945.63;4998873;28;20295;-78
2021/03/23 12:40:41;;;;;;;10.97;8.13;;;;;;;9.14;50.69;99933.88;4985899;28;20236;-78
2021/03/23 12:43:48;;;;;;;13.33;7.50;;;;;;;9.01;50.79;99923.13;5097868;23;20240;-78
2021/03/23 12:47:05;;;;;;;14.00;8.23;;;;;;;9.01;51.11;99952.53;5008383;28;20231;-78
2021/03/23 12:50:45;;;;;;;11.90;7.43;;;;;;;8.45;52.10;99911.03;5020850;23;20207;-77
2021/03/23 12:54:36;;;;;;;14.37;7.60;;;;;;;8.63;52.65;99941.50;5016520;23;20235;-78
2021/03/23 12:57:53;;;;;;;9.20;7.63;;;;;;;8.31;53.30;99944.84;4996187;28;20220;-77
2021/03/23 13:01:34;;;;;;;13.07;7.57;;;;;;;8.19;54.38;99962.41;5041364;23;20237;-78
2021/03/23 13:04:43;;;;;;;12.50;7.83;;;;;;;7.89;55.37;99961.78;4986258;28;20239;-77
2021/03/23 13:08:59;;;;;;;12.90;8.03;;;;;;;7.82;56.06;99947.59;5000961;23;20192;-77
2021/03/23 13:12:26;;;;;;;13.43;7.80;;;;;;;7.82;56.22;99934.25;5015712;23;20223;-78
2021/03/23 13:15:30;;;;;;;13.43;7.93;;;;;;;7.87;56.21;99953.16;5020545;28;20202;-77
2021/03/23 13:19:11;;;;;;;13.63;7.93;;;;;;;8.24;55.32;99949.31;5069994;23;20229;-77
2021/03/23 13:23:24;;;;;;;15.00;8.20;;;;;;;8.57;53.77;99954.84;5010393;23;20271;-77
2021/03/23 13:27:08;;;;;;;10.80;7.53;;;;;;;8.63;54.34;99948.72;4985467;28;20203;-77
2021/03/23 13:30:49;;;;;;;11.73;7.77;;;;;;;8.59;53.90;99948.28;5010402;23;20221;-78
2021/03/23 13:33:52;;;;;;;11.87;7.67;;;;;;;8.86;52.75;99943.06;5012329;28;20231;-77
2021/03/23 13:37:16;;;;;;;11.47;7.90;;;;;;;8.97;52.19;99937.09;5026766;23;20243;-78
2021/03/23 13:40:33;;;;;;;11.50;7.60;;;;;;;9.18;51.80;99956.50;4958065;28;20232;-78
2021/03/23 13:43:35;;;;;;;11.63;7.23;;;;;;;9.47;51.97;99955.28;4960878;28;20279;-78
2021/03/23 13:46:42;;;;;;;12.83;8.00;;;;;;;9.58;51.30;99957.38;4988872;28;20227;-78
2021/03/23 13:49:13;;;;;;;14.70;8.03;;;;;;;9.39;51.46;99965.34;4964541;23;20242;-78
2021/03/23 13:52:26;;;;;;;11.77;7.73;;;;;;;9.10;52.36;99953.16;4979191;28;20184;-78
2021/03/23 13:55:36;;;;;;;11.70;7.37;;;;;;;8.65;54.10;99954.66;4982217;23;23885;-79
2021/03/23 13:59:07;;;;;;;13.33;7.50;;;;;;;8.39;55.26;99960.72;5011412;28;20257;-78
2021/03/23 14:02:15;;;;;;;11.87;8.27;;;;;;;8.13;56.46;99960.53;5015061;28;20202;-78
2021/03/23 14:05:44;;;;;;;13.27;8.17;;;;;;;7.93;57.44;99974.53;5050046;23;20205;-78
2021/03/23 14:08:54;;;;;;;12.27;8.37;;;;;;;7.79;58.37;99980.78;5063366;23;20597;-78
2021/03/23 14:11:47;;;;;;;11.57;7.70;;;;;;;7.61;58.75;99961.78;5140223;23;20265;-78
2021/03/23 14:15:17;;;;;;;13.77;8.33;;;;;;;7.39;60.43;99973.47;5027162;23;20223;-78
2021/03/23 14:18:02;;;;;;;15.50;8.97;;;;;;;7.13;61.59;99967.88;5017655;23;20218;-78
2021/03/23 14:21:37;;;;;;;13.60;9.07;;;;;;;6.92;62.49;99977.50;5181779;23;20223;-78
2021/03/23 14:24:32;;;;;;;12.17;8.40;;;;;;;6.60;62.66;99941.47;4975609;29;20211;-78
2021/03/23 14:27:32;;;;;;;12.63;8.20;;;;;;;6.54;63.24;99950.19;4962167;29;20193;-78
2021/03/23 14:30:53;;;;;;;14.77;8.90;;;;;;;6.81;63.50;99972.63;5011526;23;20230;-79
2021/03/23 14:37:48;;;;;;;12.77;8.30;;;;;;;6.83;63.62;99975.13;5056979;28;20237;-78
2021/03/23 14:40:43;;;;;;;11.73;8.30;;;;;;;6.47;64.32;99940.50;5028622;28;20223;-78
2021/03/23 14:43:35;;;;;;;11.03;8.03;;;;;;;6.52;64.21;99970.03;5036714;28;20230;-78
2021/03/23 14:46:59;;;;;;;13.37;8.57;;;;;;;6.62;64.48;99967.94;5034928;28;20226;-78
2021/03/23 14:50:14;;;;;;;13.37;9.27;;;;;;;6.82;64.15;99965.47;5130979;23;20214;-78
2021/03/23 14:53:46;;;;;;;14.17;9.00;;;;;;;6.79;63.71;99952.56;5024269;28;20218;-78
2021/03/23 14:59:56;;;;;;;14.67;8.77;;;;;;;6.75;65.10;99965.41;5164628;23;20227;-78
2021/03/23 15:02:50;;;;;;;13.33;8.50;;;;;;;6.79;64.46;99956.03;5016843;28;20202;-78
2021/03/23 15:05:42;;;;;;;12.93;8.53;;;;;;;6.99;64.36;99965.09;5016069;28;20204;-80
2021/03/23 15:09:26;;;;;;;12.97;8.87;;;;;;;6.83;64.35;99953.81;5113768;23;20250;-78
2021/03/23 15:13:14;;;;;;;13.53;8.57;;;;;;;6.45;64.52;99914.06;5036637;23;20226;-78
2021/03/23 15:16:34;;;;;;;11.30;8.43;;;;;;;6.62;64.66;99930.66;5042673;23;20758;-78
2021/03/23 15:19:48;;;;;;;12.10;8.40;;;;;;;6.60;64.42;99932.66;5043704;23;20214;-77
2021/03/23 15:22:39;;;;;;;12.97;8.67;;;;;;;6.55;64.41;99945.72;5050005;23;20241;-78